KAPC/APC METAR and TAF weather

Enter ICAO airport designator
Station Type Date Time Source
KAPC METAR 2021/04/12 03:54 UTC NOAA

KAPC 120354Z AUTO 21007KT 10SM CLR 12/07 A2983 RMK AO2 SLP092 T01170067


Station Type Date Time Source
KAPC Decoded METAR 2021/04/12 03:54 UTC NOAA

NAPA COUNTY AIRPORT, CA, United States (KAPC) 38-12N 122-17W 13M
Apr 11, 2021 - 11:54 PM EDT / 2021.04.12 0354 UTC
Wind: from the SSW (210 degrees) at 8 MPH (7 KT):0
Visibility: 10 mile(s):0
Sky conditions: clear
Temperature: 53.1 F (11.7 C)
Dew Point: 44.1 F (6.7 C)
Relative Humidity: 71%
Pressure (altimeter): 29.83 in. Hg (1010 hPa)
ob: KAPC 120354Z AUTO 21007KT 10SM CLR 12/07 A2983 RMK AO2 SLP092 T01170067
cycle: 4

Station Type Date Time Source
KAPC TAF 2021/04/11 18:42 UTC NOAA

TAF KAPC 111740Z 1118/1218 VRB05KT P6SM SKC
FM120200 VRB06KT P6SM FEW012
FM121200 28004KT P6SM BKN015
FM121300 00000KT 1/4SM FG VV002
FM121700 00000KT P6SM SCT200

Example: see airport list